Terminal Aerodrome Forecast
Issued by NWS

Home | Current Version | Previous Version | Text Only | Print | Product List | Glossary On
Versions: 1 2 3 4 5 6 7 8 9 10 11 12 13 14
000
FTUS46 KLOX 261700
TAFVNY
TAF
KVNY 261736Z 2618/2718 29003KT P6SM OVC110
     FM261900 15007KT P6SM VCSH OVC100
     FM262300 15007KT P6SM -SHRA OVC080
     FM270700 VRB03KT P6SM VCSH BKN080 OVC100=

USA.gov is the U.S. government's official web portal to all federal, state and local government web resources and services.